createdAt,value
2018-08-28T00:01:01.820Z,101174.00
2018-08-28T00:03:29.504Z,101174.75
2018-08-28T00:05:57.285Z,101172.16
2018-08-28T00:08:25.292Z,101178.39
2018-08-28T00:10:52.985Z,101169.77
2018-08-28T00:13:20.667Z,101175.39
2018-08-28T00:15:48.747Z,101174.80
2018-08-28T00:18:16.462Z,101173.74
2018-08-28T00:20:44.149Z,101174.72
2018-08-28T00:23:12.121Z,101175.72
2018-08-28T00:25:39.801Z,101175.03
2018-08-28T00:28:07.488Z,101179.28
2018-08-28T00:30:35.565Z,101183.03
2018-08-28T00:33:03.283Z,101172.73
2018-08-28T00:35:31.126Z,101172.94
2018-08-28T00:37:59.179Z,101174.27
2018-08-28T00:40:26.907Z,101184.87
2018-08-28T00:42:54.859Z,101186.00
2018-08-28T00:45:22.854Z,101186.54
2018-08-28T00:47:50.537Z,101189.38
2018-08-28T00:50:18.202Z,101187.13
2018-08-28T00:52:46.162Z,101190.25
2018-08-28T00:55:13.835Z,101190.81
2018-08-28T00:57:41.540Z,101197.45
2018-08-28T01:00:09.536Z,101201.06
2018-08-28T01:02:37.204Z,101199.29
2018-08-28T01:05:05.040Z,101200.47
2018-08-28T01:07:33.002Z,101194.38
2018-08-28T01:10:00.666Z,101205.42
2018-08-28T01:12:28.387Z,101202.78
2018-08-28T01:14:56.369Z,101200.13
2018-08-28T01:17:24.065Z,101199.45
2018-08-28T01:19:51.727Z,101202.61
2018-08-28T01:22:19.843Z,101201.28
2018-08-28T01:24:47.540Z,101199.98
2018-08-28T01:27:15.234Z,101200.99
2018-08-28T01:29:43.242Z,101198.59
2018-08-28T01:32:10.933Z,101202.00
2018-08-28T01:34:38.639Z,101208.88
2018-08-28T01:37:06.699Z,101212.12
2018-08-28T01:39:34.473Z,101211.48
2018-08-28T01:42:02.255Z,101215.12
2018-08-28T01:44:30.375Z,101211.27
2018-08-28T01:46:58.135Z,101206.45
2018-08-28T01:49:25.801Z,101209.16
2018-08-28T01:51:53.884Z,101210.44
2018-08-28T01:54:21.572Z,101216.10
2018-08-28T01:56:49.249Z,101211.22
2018-08-28T01:59:17.301Z,101212.23
2018-08-28T02:01:45.014Z,101215.83
2018-08-28T02:04:12.694Z,101214.37
2018-08-28T02:06:40.688Z,101224.88
2018-08-28T02:09:08.382Z,101221.19
2018-08-28T02:11:36.104Z,101223.63
2018-08-28T02:14:04.117Z,101223.30
2018-08-28T02:16:31.861Z,101231.23
2018-08-28T02:19:00.034Z,101214.30
2018-08-28T02:21:28.045Z,101240.64
2018-08-28T02:23:55.780Z,101238.06
2018-08-28T02:26:23.602Z,101231.13
2018-08-28T02:28:51.584Z,101226.18
2018-08-28T02:31:19.260Z,101237.06
2018-08-28T02:33:47.078Z,101235.59
2018-08-28T02:36:15.120Z,101238.34
2018-08-28T02:38:42.810Z,101227.80
2018-08-28T02:41:10.503Z,101236.09
2018-08-28T02:43:38.570Z,101233.55
2018-08-28T02:46:06.259Z,101237.47
2018-08-28T02:48:33.945Z,101237.47
2018-08-28T02:51:01.974Z,101242.33
2018-08-28T02:53:29.662Z,101237.88
2018-08-28T02:55:57.330Z,101239.12
2018-08-28T02:58:25.303Z,101235.12
2018-08-28T03:00:52.982Z,101236.38
2018-08-28T03:03:20.686Z,101238.32
2018-08-28T03:05:48.486Z,101235.34
2018-08-28T03:08:16.190Z,101233.53
2018-08-28T03:10:43.919Z,101235.30
2018-08-28T03:13:11.720Z,101232.63
2018-08-28T03:15:39.527Z,101242.30
2018-08-28T03:18:07.175Z,101243.34
2018-08-28T03:20:34.995Z,101241.03
2018-08-28T03:23:02.997Z,101245.92
2018-08-28T03:25:30.683Z,101249.22
2018-08-28T03:27:58.464Z,101245.98
2018-08-28T03:30:26.152Z,101242.20
2018-08-28T03:32:53.829Z,101246.63
2018-08-28T03:35:21.635Z,101251.14
2018-08-28T03:37:49.316Z,101250.54
2018-08-28T03:40:17.011Z,101254.06
2018-08-28T03:42:44.815Z,101253.44
2018-08-28T03:45:12.497Z,101255.87
2018-08-28T03:47:40.198Z,101258.66
2018-08-28T03:50:08.009Z,101266.81
2018-08-28T03:52:35.683Z,101260.37
2018-08-28T03:55:03.427Z,101262.90
2018-08-28T03:57:31.232Z,101270.55
2018-08-28T03:59:58.917Z,101275.13
2018-08-28T04:02:26.654Z,101273.42
2018-08-28T04:04:54.517Z,101280.63
2018-08-28T04:07:22.186Z,101275.24
2018-08-28T04:09:49.852Z,101285.88
2018-08-28T04:12:17.625Z,101281.55
2018-08-28T04:14:45.323Z,101290.11
2018-08-28T04:17:13.091Z,101286.77
2018-08-28T04:19:40.827Z,101292.06
2018-08-28T04:22:08.535Z,101295.72
2018-08-28T04:24:36.194Z,101287.64
2018-08-28T04:27:04.009Z,101301.16
2018-08-28T04:29:31.698Z,101296.49
2018-08-28T04:31:59.360Z,101308.20
2018-08-28T04:34:27.151Z,101304.73
2018-08-28T04:36:54.870Z,101308.69
2018-08-28T04:39:22.538Z,101307.38
2018-08-28T04:41:50.366Z,101302.58
2018-08-28T04:44:18.116Z,101304.80
2018-08-28T04:46:45.788Z,101303.97
2018-08-28T04:49:13.605Z,101307.17
2018-08-28T04:51:41.347Z,101305.55
2018-08-28T04:54:09.036Z,101313.01
2018-08-28T04:56:36.861Z,101312.38
2018-08-28T04:59:04.647Z,101316.94
2018-08-28T05:01:32.326Z,101312.23
2018-08-28T05:04:00.114Z,101320.88
2018-08-28T05:06:27.810Z,101321.70
2018-08-28T05:08:55.479Z,101319.81
2018-08-28T05:11:23.271Z,101324.80
2018-08-28T05:13:50.965Z,101329.59
2018-08-28T05:16:18.654Z,101338.55
2018-08-28T05:18:46.469Z,101348.52
2018-08-28T05:21:14.179Z,101344.09
2018-08-28T05:23:41.838Z,101344.72
2018-08-28T05:26:09.606Z,101334.13
2018-08-28T05:28:37.384Z,101346.53
2018-08-28T05:31:05.294Z,101347.14
2018-08-28T05:33:33.093Z,101351.20
2018-08-28T05:36:00.815Z,101344.35
2018-08-28T05:38:28.552Z,101348.70
2018-08-28T05:40:56.377Z,101345.27
2018-08-28T05:43:24.038Z,101349.81
2018-08-28T05:45:51.733Z,101357.96
2018-08-28T05:48:19.540Z,101355.45
2018-08-28T05:50:47.220Z,101360.81
2018-08-28T05:53:14.872Z,101357.19
2018-08-28T05:55:42.716Z,101315.03
2018-08-28T05:58:10.358Z,101351.31
2018-08-28T06:00:38.082Z,101361.61
2018-08-28T06:03:06.179Z,101367.97
2018-08-28T06:05:33.803Z,101359.83
2018-08-28T06:08:01.571Z,101372.36
2018-08-28T06:10:29.577Z,101367.98
2018-08-28T06:12:57.296Z,101368.08
2018-08-28T06:15:25.012Z,101364.63
2018-08-28T06:17:52.984Z,101368.00
2018-08-28T06:20:20.677Z,101372.18
2018-08-28T06:22:48.345Z,101364.25
2018-08-28T06:25:16.350Z,101371.06
2018-08-28T06:27:44.030Z,101376.84
2018-08-28T06:30:11.752Z,101379.97
2018-08-28T06:32:39.599Z,101382.19
2018-08-28T06:35:07.266Z,101381.06
2018-08-28T06:37:34.941Z,101381.20
2018-08-28T06:40:02.856Z,101380.17
2018-08-28T06:42:30.521Z,101383.13
2018-08-28T06:44:58.194Z,101375.94
2018-08-28T06:47:26.146Z,101379.28
2018-08-28T06:49:53.836Z,101377.45
2018-08-28T06:52:21.509Z,101383.13
2018-08-28T06:54:49.355Z,101384.46
2018-08-28T06:57:17.078Z,101385.79
2018-08-28T06:59:44.772Z,101381.58
2018-08-28T07:02:12.662Z,101386.19
2018-08-28T07:04:40.398Z,101382.79
2018-08-28T07:07:08.464Z,101390.97
2018-08-28T07:09:36.340Z,101390.20
2018-08-28T07:12:04.056Z,101396.39
2018-08-28T07:14:31.749Z,101393.86
2018-08-28T07:16:59.607Z,101398.14
2018-08-28T07:19:27.263Z,101402.13
2018-08-28T07:21:54.926Z,101410.45
2018-08-28T07:24:22.748Z,101404.96
2018-08-28T07:26:50.438Z,101421.42
2018-08-28T07:29:18.104Z,101425.86
2018-08-28T07:31:45.973Z,101426.47
2018-08-28T07:34:13.649Z,101430.26
2018-08-28T07:36:41.291Z,101431.39
2018-08-28T07:39:09.149Z,101440.30
2018-08-28T07:41:36.787Z,101434.23
2018-08-28T07:44:04.606Z,101436.13
2018-08-28T07:46:33.322Z,101442.20
2018-08-28T07:49:00.969Z,101443.98
2018-08-28T07:51:28.648Z,101450.92
2018-08-28T07:53:56.539Z,101450.73
2018-08-28T07:56:24.160Z,101453.19
2018-08-28T07:58:51.845Z,101455.84
2018-08-28T08:01:19.756Z,101454.70
2018-08-28T08:03:47.358Z,101455.92
2018-08-28T08:06:15.004Z,101456.39
2018-08-28T08:08:42.833Z,101452.78
2018-08-28T08:11:10.496Z,101443.23
2018-08-28T08:13:38.152Z,101454.48
2018-08-28T08:16:06.100Z,101448.81
2018-08-28T08:18:33.785Z,101454.76
2018-08-28T08:21:01.454Z,101457.91
2018-08-28T08:23:29.302Z,101456.84
2018-08-28T08:25:56.986Z,101452.40
2018-08-28T08:28:24.737Z,101450.13
2018-08-28T08:30:52.468Z,101457.31
2018-08-28T08:33:20.126Z,101451.09
2018-08-28T08:35:47.774Z,101447.48
2018-08-28T08:38:15.538Z,101454.30
2018-08-28T08:40:43.196Z,101456.75
2018-08-28T08:43:10.865Z,101458.83
2018-08-28T08:45:38.626Z,101462.41
2018-08-28T08:48:06.306Z,101460.89
2018-08-28T08:50:34.029Z,101459.84
2018-08-28T08:53:01.820Z,101352.59
2018-08-28T08:55:29.499Z,101461.27
2018-08-28T08:57:57.170Z,101461.64
2018-08-28T09:00:24.953Z,101466.17
2018-08-28T09:02:52.607Z,101474.69
2018-08-28T09:05:20.732Z,101466.34
2018-08-28T09:07:48.502Z,101470.02
2018-08-28T09:10:16.208Z,101463.66
2018-08-28T09:12:44.047Z,101460.22
2018-08-28T09:15:11.710Z,101465.80
2018-08-28T09:17:39.389Z,101459.23
2018-08-28T09:20:07.370Z,101192.33
2018-08-28T09:22:35.065Z,101462.60
2018-08-28T09:25:02.837Z,101465.46
2018-08-28T09:27:30.681Z,101463.68
2018-08-28T09:29:58.377Z,101471.16
2018-08-28T09:32:26.172Z,101464.63
2018-08-28T09:34:53.980Z,101465.38
2018-08-28T09:37:21.669Z,101468.13
2018-08-28T09:39:49.350Z,101464.42
2018-08-28T09:42:17.197Z,101467.83
2018-08-28T09:44:44.874Z,101467.34
2018-08-28T09:47:12.562Z,101468.98
2018-08-28T09:49:40.481Z,101467.11
2018-08-28T09:52:08.158Z,101470.14
2018-08-28T09:54:36.775Z,101466.86
2018-08-28T09:57:04.685Z,101469.39
2018-08-28T09:59:32.373Z,101464.73
2018-08-28T10:02:00.035Z,101477.00
2018-08-28T10:04:28.022Z,101470.91
2018-08-28T10:06:55.742Z,101462.74
2018-08-28T10:09:23.427Z,101471.82
2018-08-28T10:11:51.404Z,101476.75
2018-08-28T10:14:19.088Z,101478.63
2018-08-28T10:16:46.757Z,101481.88
2018-08-28T10:19:14.710Z,101485.00
2018-08-28T10:21:42.355Z,101485.09
2018-08-28T10:24:10.026Z,101482.23
2018-08-28T10:26:37.859Z,101486.96
2018-08-28T10:29:05.632Z,101481.00
2018-08-28T10:31:33.317Z,101481.09
2018-08-28T10:34:01.218Z,101485.22
2018-08-28T10:36:28.861Z,101481.44
2018-08-28T10:38:56.522Z,101488.31
2018-08-28T10:41:24.358Z,101483.55
2018-08-28T10:43:52.017Z,101487.66
2018-08-28T10:46:19.752Z,101482.41
2018-08-28T10:48:47.643Z,101488.84
2018-08-28T10:51:16.302Z,101487.87
2018-08-28T10:53:43.956Z,101500.22
2018-08-28T10:56:11.801Z,101500.47
2018-08-28T10:58:39.499Z,101499.08
2018-08-28T11:01:07.573Z,101507.27
2018-08-28T11:03:35.385Z,101512.88
2018-08-28T11:06:03.054Z,101512.66
2018-08-28T11:08:30.737Z,101509.50
2018-08-28T11:10:58.566Z,101514.58
2018-08-28T11:13:26.220Z,101515.75
2018-08-28T11:15:53.871Z,101511.27
2018-08-28T11:18:21.694Z,101513.03
2018-08-28T11:20:49.417Z,101521.08
2018-08-28T11:23:17.076Z,101519.84
2018-08-28T11:25:44.890Z,101519.84
2018-08-28T11:28:12.588Z,101523.95
2018-08-28T11:30:40.232Z,101522.44
2018-08-28T11:33:08.083Z,101522.06
2018-08-28T11:35:35.788Z,101521.97
2018-08-28T11:38:03.444Z,101526.42
2018-08-28T11:40:31.325Z,101528.26
2018-08-28T11:42:58.974Z,101532.06
2018-08-28T11:45:26.615Z,101535.06
2018-08-28T11:47:54.435Z,101543.14
2018-08-28T11:50:22.116Z,101551.26
2018-08-28T11:52:49.758Z,101544.75
2018-08-28T11:55:17.578Z,101542.46
2018-08-28T11:57:45.240Z,101550.91
2018-08-28T12:00:13.666Z,101551.87
2018-08-28T12:02:41.516Z,101558.90
2018-08-28T12:05:09.289Z,101553.64
2018-08-28T12:07:36.886Z,101551.56
2018-08-28T12:10:04.901Z,101556.98
2018-08-28T12:12:32.545Z,101560.02
2018-08-28T12:15:00.221Z,101560.45
2018-08-28T12:17:28.066Z,101558.28
2018-08-28T12:19:55.791Z,101559.70
2018-08-28T12:22:23.485Z,101561.77
2018-08-28T12:24:51.325Z,101560.59
2018-08-28T12:27:19.022Z,101561.12
2018-08-28T12:29:46.873Z,101562.20
2018-08-28T12:32:14.632Z,101566.88
2018-08-28T12:34:42.275Z,101567.69
2018-08-28T12:37:10.002Z,101567.53
2018-08-28T12:39:37.801Z,101568.87
2018-08-28T12:42:05.475Z,101571.38
2018-08-28T12:44:33.150Z,101569.67
2018-08-28T12:47:00.930Z,101576.80
2018-08-28T12:49:28.586Z,101571.31
2018-08-28T12:51:56.265Z,101577.51
2018-08-28T12:54:24.077Z,101577.66
2018-08-28T12:56:51.737Z,101581.16
2018-08-28T12:59:19.394Z,101572.05
2018-08-28T13:01:47.213Z,101570.27
2018-08-28T13:04:14.888Z,101581.31
2018-08-28T13:06:42.588Z,101581.06
2018-08-28T13:09:10.472Z,101579.23
2018-08-28T13:11:39.194Z,101581.81
2018-08-28T13:14:06.890Z,101588.71
2018-08-28T13:16:34.713Z,101586.91
2018-08-28T13:19:02.694Z,101590.54
2018-08-28T13:21:30.372Z,101589.83
2018-08-28T13:23:58.221Z,101590.32
2018-08-28T13:26:25.925Z,101592.27
2018-08-28T13:28:53.644Z,101590.84
2018-08-28T13:31:21.641Z,101590.41
2018-08-28T13:33:49.393Z,101596.55
2018-08-28T13:36:17.116Z,101598.52
2018-08-28T13:38:44.936Z,101601.59
2018-08-28T13:41:12.610Z,101600.99
2018-08-28T13:43:40.316Z,101606.69
2018-08-28T13:46:08.136Z,101605.51
2018-08-28T13:48:35.884Z,101608.55
2018-08-28T13:51:03.574Z,101578.48
2018-08-28T13:53:31.354Z,101610.19
2018-08-28T13:55:59.029Z,101608.95
2018-08-28T13:58:26.764Z,101614.09
2018-08-28T14:00:54.624Z,101613.13
2018-08-28T14:03:22.324Z,101618.09
2018-08-28T14:05:49.994Z,101624.25
2018-08-28T14:08:17.777Z,101616.16
2018-08-28T14:10:45.445Z,101619.42
2018-08-28T14:13:13.268Z,101622.09
2018-08-28T14:15:40.929Z,101618.33
2018-08-28T14:18:08.632Z,101622.23
2018-08-28T14:20:36.328Z,101621.36
2018-08-28T14:23:04.141Z,101619.42
2018-08-28T14:25:31.820Z,101618.18
2018-08-28T14:27:59.547Z,101623.20
2018-08-28T14:30:27.352Z,101629.30
2018-08-28T14:32:55.024Z,101629.86
2018-08-28T14:35:22.725Z,101629.80
2018-08-28T14:37:50.522Z,101632.46
2018-08-28T14:40:18.186Z,101632.61
2018-08-28T14:42:45.891Z,101633.11
2018-08-28T14:45:13.690Z,101635.77
2018-08-28T14:47:41.377Z,101642.95
2018-08-28T14:50:09.170Z,101638.09
2018-08-28T14:52:36.953Z,101644.29
2018-08-28T14:55:04.724Z,101645.87
2018-08-28T14:57:32.429Z,101640.91
2018-08-28T15:00:00.233Z,101647.84
2018-08-28T15:02:27.900Z,101650.02
2018-08-28T15:04:55.596Z,101650.88
2018-08-28T15:07:23.392Z,101649.42
2018-08-28T15:09:51.078Z,101654.66
2018-08-28T15:12:18.810Z,101663.49
2018-08-28T15:14:46.610Z,101664.60
2018-08-28T15:17:14.373Z,101664.88
2018-08-28T15:19:42.059Z,101667.55
2018-08-28T15:22:09.849Z,101667.33
2018-08-28T15:24:37.531Z,101671.69
2018-08-28T15:27:05.338Z,101675.32
2018-08-28T15:29:33.127Z,101669.98
2018-08-28T15:32:00.836Z,101669.03
2018-08-28T15:34:28.536Z,101673.98
2018-08-28T15:36:56.340Z,101671.47
2018-08-28T15:39:24.010Z,101669.67
2018-08-28T15:41:51.704Z,101672.80
2018-08-28T15:44:19.685Z,101670.51
2018-08-28T15:46:47.394Z,101678.88
2018-08-28T15:49:15.071Z,101671.03
2018-08-28T15:51:43.133Z,101673.17
2018-08-28T15:54:10.772Z,101675.25
2018-08-28T15:56:38.465Z,101673.55
2018-08-28T15:59:06.548Z,101673.55
2018-08-28T16:01:34.237Z,101674.04
2018-08-28T16:04:01.921Z,101674.28
2018-08-28T16:06:30.008Z,101672.88
2018-08-28T16:08:57.720Z,101678.73
2018-08-28T16:11:25.413Z,101677.15
2018-08-28T16:13:53.211Z,101671.17
2018-08-28T16:16:20.862Z,101674.58
2018-08-28T16:18:48.565Z,101682.80
2018-08-28T16:21:16.374Z,101682.05
2018-08-28T16:23:45.897Z,101680.13
2018-08-28T16:26:13.562Z,101678.58
2018-08-28T16:28:41.428Z,101688.92
2018-08-28T16:31:09.128Z,101687.53
2018-08-28T16:33:36.790Z,101685.09
2018-08-28T16:36:04.582Z,101695.38
2018-08-28T16:38:32.249Z,101691.38
2018-08-28T16:40:59.975Z,101688.13
2018-08-28T16:43:27.882Z,101692.81
2018-08-28T16:45:55.610Z,101699.31
2018-08-28T16:48:23.370Z,101701.89
2018-08-28T16:50:51.126Z,101694.42
2018-08-28T16:53:18.835Z,101698.11
2018-08-28T16:55:46.584Z,101698.05
2018-08-28T16:58:14.406Z,101705.08
2018-08-28T17:00:42.131Z,101705.39
2018-08-28T17:03:09.807Z,101707.87
2018-08-28T17:05:37.631Z,101708.64
2018-08-28T17:08:05.314Z,101709.61
2018-08-28T17:10:33.090Z,101713.36
2018-08-28T17:13:00.946Z,101715.87
2018-08-28T17:15:28.649Z,101715.80
2018-08-28T17:17:56.872Z,101717.57
2018-08-28T17:20:24.783Z,101721.81
2018-08-28T17:22:52.449Z,101725.66
2018-08-28T17:25:20.342Z,101723.06
2018-08-28T17:27:48.197Z,101730.47
2018-08-28T17:30:15.961Z,101729.88
2018-08-28T17:32:43.656Z,101730.25
2018-08-28T17:35:11.530Z,101731.05
2018-08-28T17:37:39.222Z,101734.55
2018-08-28T17:40:06.962Z,101738.55
2018-08-28T17:42:34.866Z,101738.36
2018-08-28T17:45:02.575Z,101744.77
2018-08-28T17:47:30.250Z,101743.10
2018-08-28T17:49:58.094Z,101746.91
2018-08-28T17:52:25.830Z,101749.64
2018-08-28T17:54:53.537Z,101743.94
2018-08-28T17:57:21.351Z,101746.73
2018-08-28T17:59:49.055Z,101747.31
2018-08-28T18:02:16.820Z,101750.81
2018-08-28T18:04:44.649Z,101756.14
2018-08-28T18:07:12.367Z,101763.02
2018-08-28T18:09:40.075Z,101768.23
2018-08-28T18:12:07.901Z,101765.80
2018-08-28T18:14:35.600Z,101771.62
2018-08-28T18:17:03.305Z,101773.03
2018-08-28T18:19:31.110Z,101774.61
2018-08-28T18:21:58.830Z,101772.61
2018-08-28T18:24:26.512Z,101774.06
2018-08-28T18:26:54.352Z,101776.98
2018-08-28T18:29:22.038Z,101778.53
2018-08-28T18:31:49.726Z,101783.86
2018-08-28T18:34:17.559Z,101778.59
2018-08-28T18:36:45.340Z,101785.72
2018-08-28T18:39:13.068Z,101784.89
2018-08-28T18:41:40.936Z,101794.21
2018-08-28T18:44:08.602Z,101790.14
2018-08-28T18:46:36.332Z,101795.01
2018-08-28T18:49:04.605Z,101798.55
2018-08-28T18:51:32.317Z,101800.34
2018-08-28T18:54:00.025Z,101804.59
2018-08-28T18:56:27.878Z,101806.09
2018-08-28T18:58:55.586Z,101814.08
2018-08-28T19:01:23.289Z,101814.75
2018-08-28T19:03:51.098Z,101814.33
2018-08-28T19:06:18.826Z,101817.95
2018-08-28T19:08:46.585Z,101818.74
2018-08-28T19:11:14.435Z,101817.33
2018-08-28T19:13:42.205Z,101820.95
2018-08-28T19:16:09.913Z,101818.74
2018-08-28T19:18:37.742Z,101810.22
2018-08-28T19:21:05.495Z,101816.13
2018-08-28T19:23:33.184Z,101817.62
2018-08-28T19:26:01.036Z,101822.45
2018-08-28T19:28:28.748Z,101818.88
2018-08-28T19:30:56.440Z,101815.91
2018-08-28T19:33:24.348Z,101816.58
2018-08-28T19:35:52.060Z,101813.91
2018-08-28T19:38:19.752Z,101809.59
2018-08-28T19:40:47.625Z,101814.58
2018-08-28T19:43:15.376Z,101814.50
2018-08-28T19:45:43.520Z,101816.37
2018-08-28T19:48:11.358Z,101815.45
2018-08-28T19:50:39.075Z,101817.02
2018-08-28T19:53:06.763Z,101817.48
2018-08-28T19:55:34.606Z,101818.86
2018-08-28T19:58:02.301Z,101812.55
2018-08-28T20:00:30.019Z,101811.26
2018-08-28T20:02:57.882Z,101804.27
2018-08-28T20:05:25.561Z,101816.37
2018-08-28T20:07:53.246Z,101813.00
2018-08-28T20:10:21.106Z,101814.41
2018-08-28T20:12:48.795Z,101813.70
2018-08-28T20:15:16.478Z,101816.78
2018-08-28T20:17:44.389Z,101813.20
2018-08-28T20:20:12.161Z,101814.50
2018-08-28T20:22:39.853Z,101816.78
2018-08-28T20:25:07.770Z,101815.12
2018-08-28T20:27:35.482Z,101815.30
2018-08-28T20:30:03.274Z,101819.83
2018-08-28T20:32:31.142Z,101819.16
2018-08-28T20:34:58.965Z,101814.67
2018-08-28T20:37:26.752Z,101818.29
2018-08-28T20:39:54.733Z,101823.16
2018-08-28T20:42:22.402Z,101824.03
2018-08-28T20:44:50.246Z,101824.03
2018-08-28T20:47:18.082Z,101824.19
2018-08-28T20:49:45.782Z,101828.36
2018-08-28T20:52:13.453Z,101833.63
2018-08-28T20:54:41.284Z,101834.67
2018-08-28T20:57:08.949Z,101836.98
2018-08-28T20:59:36.627Z,101835.66
2018-08-28T21:02:04.638Z,101838.14
2018-08-28T21:04:32.274Z,101840.80
2018-08-28T21:07:00.000Z,101839.56
2018-08-28T21:09:27.698Z,101842.72
2018-08-28T21:11:55.343Z,101841.18
2018-08-28T21:14:22.955Z,101843.94
2018-08-28T21:16:50.694Z,101843.95
2018-08-28T21:19:18.711Z,101847.23
2018-08-28T21:21:46.333Z,101846.56
2018-08-28T21:24:14.100Z,101845.66
2018-08-28T21:26:41.742Z,101842.34
2018-08-28T21:29:09.385Z,101841.67
2018-08-28T21:31:37.121Z,101844.33
2018-08-28T21:34:04.847Z,101843.05
2018-08-28T21:36:32.503Z,101842.80
2018-08-28T21:39:00.231Z,101847.58
2018-08-28T21:41:27.919Z,101846.97
2018-08-28T21:43:55.543Z,101845.70
2018-08-28T21:46:23.275Z,101846.77
2018-08-28T21:48:50.921Z,101845.41
2018-08-28T21:51:18.539Z,101848.39
2018-08-28T21:53:46.308Z,101848.67
2018-08-28T21:56:13.929Z,101850.30
2018-08-28T21:58:41.574Z,101844.77
2018-08-28T22:01:11.916Z,101847.00
2018-08-28T22:03:40.727Z,101848.73
2018-08-28T22:06:14.005Z,101852.95
2018-08-28T22:08:41.726Z,101854.64
2018-08-28T22:11:09.355Z,101848.77
2018-08-28T22:13:37.684Z,101849.83
2018-08-28T22:16:05.347Z,101848.79
2018-08-28T22:18:32.992Z,101851.28
2018-08-28T22:21:00.724Z,101854.86
2018-08-28T22:23:28.411Z,101855.16
2018-08-28T22:25:56.054Z,101856.40
2018-08-28T22:28:23.786Z,101853.28
2018-08-28T22:30:51.427Z,101858.22
2018-08-28T22:33:19.059Z,101860.79
2018-08-28T22:35:46.814Z,101863.66
2018-08-28T22:38:14.491Z,101863.92
2018-08-28T22:40:42.131Z,101871.06
2018-08-28T22:43:09.882Z,101870.37
2018-08-28T22:45:37.503Z,101869.80
2018-08-28T22:48:05.487Z,101866.88
2018-08-28T22:50:33.233Z,101870.89
2018-08-28T22:53:00.863Z,101872.08
2018-08-28T22:55:28.498Z,101867.60
2018-08-28T22:57:56.283Z,101874.08
2018-08-28T23:00:24.021Z,101874.10
2018-08-28T23:02:53.517Z,101871.64
2018-08-28T23:05:21.555Z,101868.28
2018-08-28T23:07:49.502Z,101867.40
2018-08-28T23:10:17.262Z,101869.62
2018-08-28T23:12:45.025Z,101873.99
2018-08-28T23:15:12.841Z,101870.37
2018-08-28T23:17:40.607Z,101875.03
2018-08-28T23:20:08.352Z,101868.28
2018-08-28T23:22:36.088Z,101868.40
2018-08-28T23:25:03.869Z,101876.94
2018-08-28T23:27:31.762Z,101872.59
2018-08-28T23:29:59.493Z,101877.52
2018-08-28T23:32:27.251Z,101873.87
2018-08-28T23:34:54.964Z,101874.95
2018-08-28T23:37:22.682Z,101872.77
2018-08-28T23:39:50.419Z,101871.70
2018-08-28T23:42:18.170Z,101869.33
2018-08-28T23:44:45.913Z,101866.38
2018-08-28T23:47:13.652Z,101863.66
2018-08-28T23:49:41.389Z,101861.05
2018-08-28T23:52:09.116Z,101872.47
2018-08-28T23:54:36.839Z,101874.19
2018-08-28T23:57:04.598Z,101871.81
2018-08-28T23:59:32.350Z,101868.93
